Flight Track Log - Related Links

Times and Time Zones

All times are in EDT time to prevent confusion due to time zone crossing. See the SKW6344 flight status page for this flight to view local times or setup timezone preferences in your user account.

Time Position Orientation Groundspeed Altitude Reporting Facility
EDT Latitude Longitude Course Direction KTS MPH feet Rate Location/Type
Mon 02:30:00 AM 33.8758 -118.3397 140° Southeast  Level Estimated
Mon 02:31:00 AM 33.8091 -118.2714 140° Southeast  Level Estimated
Mon 02:32:00 AM 33.7424 -118.2032 140° Southeast  Level Estimated
Mon 02:33:00 AM 33.6756 -118.1351 140° Southeast  Level Estimated
Mon 02:34:00 AM 33.6088 -118.0672 140° Southeast  Level Estimated
Mon 02:35:00 AM 33.5420 -117.9993 140° Southeast  Level Estimated
Mon 02:36:00 AM 33.4751 -117.9316 140° Southeast  Level Estimated
Mon 02:37:00 AM 33.4082 -117.8639 140° Southeast  Level Estimated
Mon 02:38:00 AM 33.3412 -117.7964 140° Southeast  Level Estimated
Mon 02:39:00 AM 33.2742 -117.7289 140° Southeast  Level Estimated
Mon 02:40:00 AM 33.2072 -117.6616 140° Southeast  Level Estimated
Mon 02:41:00 AM 33.1401 -117.5943 140° Southeast  Level Estimated
Mon 02:42:00 AM 33.0730 -117.5272 140° Southeast  Level Estimated
Mon 02:43:00 AM 33.0059 -117.4602 140° Southeast  Level Estimated
Mon 02:44:00 AM 32.9387 -117.3932 140° Southeast  Level Estimated
Mon 02:45:00 AM 32.8715 -117.3264 140° Southeast  Level Estimated
Mon 02:46:00 AM 32.8043 -117.2597 140° Southeast  Level Estimated
Mon 02:47:00 AM 32.7370 -117.1931 140° Southeast  Level Estimated
Mon 02:48:00 AM 32.6697 -117.1266 320° Northwest  Level Estimated
Mon 02:49:00 AM 32.7370 -117.1931 140° Southeast  Level Estimated
Mon 02:50:00 AM 32.6697 -117.1266 320° Northwest  Level Estimated
Mon 02:51:00 AM 32.7370 -117.1931 140° Southeast  Level Estimated
Mon 02:52:00 AM 32.6697 -117.1266 320° Northwest  Level Estimated
Mon 02:53:00 AM 32.7370 -117.1931 320° Northwest  Level Estimated

Login

Don't have an account? Register now (free) for customized features, flight alerts, and more!